sensor_id;sensor_type;location;lat;lon;timestamp;P1;durP1;ratioP1;P2;durP2;ratioP2
26696;SDS011;14312;52.614;13.496;2023-07-16T00:01:12;1.63;;;1.50;;
26696;SDS011;14312;52.614;13.496;2023-07-16T00:03:57;1.58;;;1.48;;
26696;SDS011;14312;52.614;13.496;2023-07-16T00:06:43;1.77;;;1.67;;
26696;SDS011;14312;52.614;13.496;2023-07-16T00:09:29;1.77;;;1.67;;
26696;SDS011;14312;52.614;13.496;2023-07-16T00:12:15;1.70;;;1.60;;
26696;SDS011;14312;52.614;13.496;2023-07-16T00:15:01;2.00;;;1.80;;
26696;SDS011;14312;52.614;13.496;2023-07-16T00:17:47;1.70;;;1.60;;
26696;SDS011;14312;52.614;13.496;2023-07-16T00:20:33;4.28;;;1.77;;
26696;SDS011;14312;52.614;13.496;2023-07-16T00:23:19;1.75;;;1.65;;
26696;SDS011;14312;52.614;13.496;2023-07-16T00:26:05;1.88;;;1.70;;
26696;SDS011;14312;52.614;13.496;2023-07-16T00:28:51;2.08;;;1.98;;
26696;SDS011;14312;52.614;13.496;2023-07-16T00:31:37;2.47;;;2.28;;
26696;SDS011;14312;52.614;13.496;2023-07-16T00:34:23;2.90;;;2.50;;
26696;SDS011;14312;52.614;13.496;2023-07-16T00:37:09;2.45;;;2.25;;
26696;SDS011;14312;52.614;13.496;2023-07-16T00:39:55;2.03;;;1.92;;
26696;SDS011;14312;52.614;13.496;2023-07-16T00:42:41;2.20;;;2.00;;
26696;SDS011;14312;52.614;13.496;2023-07-16T00:45:26;2.15;;;1.75;;
26696;SDS011;14312;52.614;13.496;2023-07-16T00:48:13;2.00;;;1.80;;
26696;SDS011;14312;52.614;13.496;2023-07-16T00:51:00;2.17;;;2.08;;
26696;SDS011;14312;52.614;13.496;2023-07-16T00:53:48;2.20;;;2.00;;
26696;SDS011;14312;52.614;13.496;2023-07-16T00:56:34;2.10;;;2.00;;
26696;SDS011;14312;52.614;13.496;2023-07-16T00:59:22;3.22;;;2.42;;
26696;SDS011;14312;52.614;13.496;2023-07-16T01:02:08;2.53;;;2.33;;
26696;SDS011;14312;52.614;13.496;2023-07-16T01:04:54;2.80;;;2.60;;
26696;SDS011;14312;52.614;13.496;2023-07-16T01:07:41;2.20;;;2.10;;
26696;SDS011;14312;52.614;13.496;2023-07-16T01:10:32;2.60;;;2.40;;
26696;SDS011;14312;52.614;13.496;2023-07-16T01:13:19;2.92;;;2.50;;
26696;SDS011;14312;52.614;13.496;2023-07-16T01:16:05;2.88;;;2.38;;
26696;SDS011;14312;52.614;13.496;2023-07-16T01:18:51;2.22;;;2.08;;
26696;SDS011;14312;52.614;13.496;2023-07-16T01:22:02;3.08;;;2.40;;
26696;SDS011;14312;52.614;13.496;2023-07-16T01:28:11;2.60;;;2.40;;
26696;SDS011;14312;52.614;13.496;2023-07-16T01:31:18;2.88;;;2.67;;
26696;SDS011;14312;52.614;13.496;2023-07-16T01:34:07;2.60;;;2.40;;
26696;SDS011;14312;52.614;13.496;2023-07-16T01:36:55;2.95;;;2.75;;
26696;SDS011;14312;52.614;13.496;2023-07-16T01:39:41;2.97;;;2.78;;
26696;SDS011;14312;52.614;13.496;2023-07-16T01:42:27;3.13;;;2.72;;
26696;SDS011;14312;52.614;13.496;2023-07-16T01:45:13;3.35;;;3.08;;
26696;SDS011;14312;52.614;13.496;2023-07-16T01:48:13;4.65;;;2.90;;
26696;SDS011;14312;52.614;13.496;2023-07-16T01:51:07;3.25;;;3.05;;
26696;SDS011;14312;52.614;13.496;2023-07-16T01:53:53;4.00;;;3.10;;
26696;SDS011;14312;52.614;13.496;2023-07-16T01:56:39;3.33;;;3.03;;
26696;SDS011;14312;52.614;13.496;2023-07-16T01:59:25;3.00;;;2.80;;
26696;SDS011;14312;52.614;13.496;2023-07-16T02:02:10;2.60;;;2.40;;
26696;SDS011;14312;52.614;13.496;2023-07-16T02:04:56;3.05;;;2.72;;
26696;SDS011;14312;52.614;13.496;2023-07-16T02:07:42;2.80;;;2.60;;
26696;SDS011;14312;52.614;13.496;2023-07-16T02:10:28;3.17;;;2.88;;
26696;SDS011;14312;52.614;13.496;2023-07-16T02:13:14;2.70;;;2.50;;
26696;SDS011;14312;52.614;13.496;2023-07-16T02:16:00;3.03;;;2.80;;
26696;SDS011;14312;52.614;13.496;2023-07-16T02:18:46;2.47;;;2.28;;
26696;SDS011;14312;52.614;13.496;2023-07-16T02:21:32;3.25;;;2.95;;
26696;SDS011;14312;52.614;13.496;2023-07-16T02:24:18;2.85;;;2.65;;
26696;SDS011;14312;52.614;13.496;2023-07-16T02:27:04;3.10;;;2.90;;
26696;SDS011;14312;52.614;13.496;2023-07-16T02:29:50;2.88;;;2.40;;
26696;SDS011;14312;52.614;13.496;2023-07-16T02:32:36;2.50;;;2.28;;
26696;SDS011;14312;52.614;13.496;2023-07-16T02:35:22;2.65;;;2.45;;
26696;SDS011;14312;52.614;13.496;2023-07-16T02:38:08;2.63;;;2.42;;
26696;SDS011;14312;52.614;13.496;2023-07-16T02:40:54;2.65;;;2.25;;
26696;SDS011;14312;52.614;13.496;2023-07-16T02:43:40;2.53;;;2.20;;
26696;SDS011;14312;52.614;13.496;2023-07-16T02:46:26;2.05;;;1.90;;
26696;SDS011;14312;52.614;13.496;2023-07-16T02:49:12;2.58;;;2.40;;
26696;SDS011;14312;52.614;13.496;2023-07-16T02:51:58;2.00;;;1.85;;
26696;SDS011;14312;52.614;13.496;2023-07-16T02:54:44;2.05;;;1.95;;
26696;SDS011;14312;52.614;13.496;2023-07-16T02:57:30;1.70;;;1.60;;
26696;SDS011;14312;52.614;13.496;2023-07-16T03:00:16;2.80;;;2.35;;
26696;SDS011;14312;52.614;13.496;2023-07-16T03:03:02;2.30;;;2.10;;
26696;SDS011;14312;52.614;13.496;2023-07-16T03:05:51;2.05;;;1.95;;
26696;SDS011;14312;52.614;13.496;2023-07-16T03:08:37;2.00;;;1.90;;
26696;SDS011;14312;52.614;13.496;2023-07-16T03:11:23;2.60;;;2.00;;
26696;SDS011;14312;52.614;13.496;2023-07-16T03:14:08;2.50;;;2.30;;
26696;SDS011;14312;52.614;13.496;2023-07-16T03:16:54;2.33;;;2.13;;
26696;SDS011;14312;52.614;13.496;2023-07-16T03:19:40;2.63;;;2.42;;
26696;SDS011;14312;52.614;13.496;2023-07-16T03:22:26;2.30;;;2.10;;
26696;SDS011;14312;52.614;13.496;2023-07-16T03:25:12;2.38;;;2.17;;
26696;SDS011;14312;52.614;13.496;2023-07-16T03:27:58;2.60;;;2.05;;
26696;SDS011;14312;52.614;13.496;2023-07-16T03:30:45;2.97;;;2.50;;
26696;SDS011;14312;52.614;13.496;2023-07-16T03:33:34;2.50;;;2.30;;
26696;SDS011;14312;52.614;13.496;2023-07-16T03:36:20;2.67;;;2.47;;
26696;SDS011;14312;52.614;13.496;2023-07-16T03:39:06;2.22;;;2.03;;
26696;SDS011;14312;52.614;13.496;2023-07-16T03:41:52;2.08;;;1.88;;
26696;SDS011;14312;52.614;13.496;2023-07-16T03:44:38;2.40;;;2.20;;
26696;SDS011;14312;52.614;13.496;2023-07-16T03:47:24;2.33;;;2.13;;
26696;SDS011;14312;52.614;13.496;2023-07-16T03:50:09;2.60;;;2.40;;
26696;SDS011;14312;52.614;13.496;2023-07-16T03:52:56;2.85;;;2.65;;
26696;SDS011;14312;52.614;13.496;2023-07-16T03:55:42;2.60;;;2.40;;
26696;SDS011;14312;52.614;13.496;2023-07-16T03:58:28;2.40;;;2.10;;
26696;SDS011;14312;52.614;13.496;2023-07-16T04:01:14;2.10;;;2.00;;
26696;SDS011;14312;52.614;13.496;2023-07-16T04:04:00;2.42;;;2.22;;
26696;SDS011;14312;52.614;13.496;2023-07-16T04:06:46;2.20;;;2.10;;
26696;SDS011;14312;52.614;13.496;2023-07-16T04:09:32;2.33;;;2.15;;
26696;SDS011;14312;52.614;13.496;2023-07-16T04:12:18;2.45;;;2.25;;
26696;SDS011;14312;52.614;13.496;2023-07-16T04:15:06;4.00;;;2.47;;
26696;SDS011;14312;52.614;13.496;2023-07-16T04:17:54;2.88;;;2.58;;
26696;SDS011;14312;52.614;13.496;2023-07-16T04:20:40;2.42;;;2.22;;
26696;SDS011;14312;52.614;13.496;2023-07-16T04:23:26;2.63;;;2.40;;
26696;SDS011;14312;52.614;13.496;2023-07-16T04:26:12;2.20;;;2.10;;
26696;SDS011;14312;52.614;13.496;2023-07-16T04:28:58;1.88;;;1.77;;
26696;SDS011;14312;52.614;13.496;2023-07-16T04:31:44;1.92;;;1.73;;
26696;SDS011;14312;52.614;13.496;2023-07-16T04:34:30;2.95;;;2.25;;
26696;SDS011;14312;52.614;13.496;2023-07-16T04:37:16;2.63;;;2.42;;
26696;SDS011;14312;52.614;13.496;2023-07-16T04:40:02;2.72;;;2.53;;
26696;SDS011;14312;52.614;13.496;2023-07-16T04:42:49;2.00;;;1.85;;
26696;SDS011;14312;52.614;13.496;2023-07-16T04:45:35;2.00;;;1.80;;
26696;SDS011;14312;52.614;13.496;2023-07-16T04:48:21;2.28;;;2.08;;
26696;SDS011;14312;52.614;13.496;2023-07-16T04:51:07;2.08;;;1.88;;
26696;SDS011;14312;52.614;13.496;2023-07-16T04:53:53;2.40;;;2.20;;
26696;SDS011;14312;52.614;13.496;2023-07-16T04:56:39;2.90;;;2.35;;
26696;SDS011;14312;52.614;13.496;2023-07-16T04:59:25;2.03;;;1.83;;
26696;SDS011;14312;52.614;13.496;2023-07-16T05:02:11;2.00;;;1.90;;
26696;SDS011;14312;52.614;13.496;2023-07-16T05:04:57;2.13;;;1.92;;
26696;SDS011;14312;52.614;13.496;2023-07-16T05:07:43;2.00;;;1.80;;
26696;SDS011;14312;52.614;13.496;2023-07-16T05:10:29;1.77;;;1.65;;
26696;SDS011;14312;52.614;13.496;2023-07-16T05:13:15;1.83;;;1.73;;
26696;SDS011;14312;52.614;13.496;2023-07-16T05:16:01;1.90;;;1.80;;
26696;SDS011;14312;52.614;13.496;2023-07-16T05:18:47;2.17;;;1.98;;
26696;SDS011;14312;52.614;13.496;2023-07-16T05:21:33;2.38;;;1.92;;
26696;SDS011;14312;52.614;13.496;2023-07-16T05:24:19;1.90;;;1.80;;
26696;SDS011;14312;52.614;13.496;2023-07-16T05:27:05;2.75;;;2.20;;
26696;SDS011;14312;52.614;13.496;2023-07-16T05:29:51;2.35;;;1.85;;
26696;SDS011;14312;52.614;13.496;2023-07-16T05:32:37;2.20;;;2.00;;
26696;SDS011;14312;52.614;13.496;2023-07-16T05:35:23;1.90;;;1.80;;
26696;SDS011;14312;52.614;13.496;2023-07-16T05:38:09;2.10;;;2.00;;
26696;SDS011;14312;52.614;13.496;2023-07-16T05:40:59;2.60;;;2.40;;
26696;SDS011;14312;52.614;13.496;2023-07-16T05:43:47;2.05;;;1.95;;
26696;SDS011;14312;52.614;13.496;2023-07-16T05:46:33;2.13;;;2.03;;
26696;SDS011;14312;52.614;13.496;2023-07-16T05:49:19;2.67;;;2.03;;
26696;SDS011;14312;52.614;13.496;2023-07-16T05:52:05;2.20;;;2.10;;
26696;SDS011;14312;52.614;13.496;2023-07-16T05:54:52;2.25;;;2.05;;
26696;SDS011;14312;52.614;13.496;2023-07-16T05:57:37;2.40;;;2.20;;
26696;SDS011;14312;52.614;13.496;2023-07-16T06:00:23;2.30;;;2.10;;
26696;SDS011;14312;52.614;13.496;2023-07-16T06:03:09;2.45;;;2.25;;
26696;SDS011;14312;52.614;13.496;2023-07-16T06:05:55;2.75;;;2.50;;
26696;SDS011;14312;52.614;13.496;2023-07-16T06:08:41;2.60;;;2.40;;
26696;SDS011;14312;52.614;13.496;2023-07-16T06:11:27;2.70;;;2.50;;
26696;SDS011;14312;52.614;13.496;2023-07-16T06:14:13;3.80;;;2.70;;
26696;SDS011;14312;52.614;13.496;2023-07-16T06:16:59;3.30;;;2.50;;
26696;SDS011;14312;52.614;13.496;2023-07-16T06:19:45;2.60;;;2.40;;
26696;SDS011;14312;52.614;13.496;2023-07-16T06:22:33;3.03;;;2.72;;
26696;SDS011;14312;52.614;13.496;2023-07-16T06:25:19;2.72;;;2.53;;
26696;SDS011;14312;52.614;13.496;2023-07-16T06:28:05;2.90;;;2.60;;
26696;SDS011;14312;52.614;13.496;2023-07-16T06:30:51;3.00;;;2.72;;
26696;SDS011;14312;52.614;13.496;2023-07-16T06:33:37;2.60;;;2.40;;
26696;SDS011;14312;52.614;13.496;2023-07-16T06:36:23;3.00;;;2.70;;
26696;SDS011;14312;52.614;13.496;2023-07-16T06:39:09;2.85;;;2.65;;
26696;SDS011;14312;52.614;13.496;2023-07-16T06:41:55;3.17;;;2.88;;
26696;SDS011;14312;52.614;13.496;2023-07-16T06:44:41;2.90;;;2.67;;
26696;SDS011;14312;52.614;13.496;2023-07-16T06:47:27;2.60;;;2.40;;
26696;SDS011;14312;52.614;13.496;2023-07-16T06:50:13;2.78;;;2.58;;
26696;SDS011;14312;52.614;13.496;2023-07-16T06:52:59;2.78;;;2.58;;
26696;SDS011;14312;52.614;13.496;2023-07-16T06:55:47;2.88;;;2.67;;
26696;SDS011;14312;52.614;13.496;2023-07-16T06:58:34;2.83;;;2.63;;
26696;SDS011;14312;52.614;13.496;2023-07-16T07:01:20;2.88;;;2.67;;
26696;SDS011;14312;52.614;13.496;2023-07-16T07:04:06;2.72;;;2.53;;
26696;SDS011;14312;52.614;13.496;2023-07-16T07:06:52;2.53;;;2.33;;
26696;SDS011;14312;52.614;13.496;2023-07-16T07:09:38;2.40;;;2.20;;
26696;SDS011;14312;52.614;13.496;2023-07-16T07:12:24;3.00;;;2.70;;
26696;SDS011;14312;52.614;13.496;2023-07-16T07:15:10;2.50;;;2.30;;
26696;SDS011;14312;52.614;13.496;2023-07-16T07:17:56;2.65;;;2.45;;
26696;SDS011;14312;52.614;13.496;2023-07-16T07:20:42;2.20;;;2.10;;
26696;SDS011;14312;52.614;13.496;2023-07-16T07:23:28;2.65;;;2.38;;
26696;SDS011;14312;52.614;13.496;2023-07-16T07:26:14;2.90;;;2.28;;
26696;SDS011;14312;52.614;13.496;2023-07-16T07:29:00;2.20;;;2.00;;
26696;SDS011;14312;52.614;13.496;2023-07-16T07:31:45;2.05;;;1.88;;
26696;SDS011;14312;52.614;13.496;2023-07-16T07:34:33;2.20;;;2.00;;
26696;SDS011;14312;52.614;13.496;2023-07-16T07:37:18;2.45;;;2.15;;
26696;SDS011;14312;52.614;13.496;2023-07-16T07:40:05;2.22;;;2.03;;
26696;SDS011;14312;52.614;13.496;2023-07-16T07:42:51;2.35;;;2.15;;
26696;SDS011;14312;52.614;13.496;2023-07-16T07:45:37;2.75;;;2.55;;
26696;SDS011;14312;52.614;13.496;2023-07-16T07:48:23;2.60;;;2.42;;
26696;SDS011;14312;52.614;13.496;2023-07-16T07:51:09;2.53;;;2.33;;
26696;SDS011;14312;52.614;13.496;2023-07-16T07:53:55;3.08;;;2.30;;
26696;SDS011;14312;52.614;13.496;2023-07-16T07:56:41;2.25;;;2.05;;
26696;SDS011;14312;52.614;13.496;2023-07-16T07:59:27;2.35;;;2.03;;
26696;SDS011;14312;52.614;13.496;2023-07-16T08:02:13;2.22;;;2.08;;
26696;SDS011;14312;52.614;13.496;2023-07-16T08:04:59;2.38;;;2.17;;
26696;SDS011;14312;52.614;13.496;2023-07-16T08:07:44;2.35;;;2.00;;
26696;SDS011;14312;52.614;13.496;2023-07-16T08:10:30;2.25;;;2.05;;
26696;SDS011;14312;52.614;13.496;2023-07-16T08:13:16;2.10;;;1.90;;
26696;SDS011;14312;52.614;13.496;2023-07-16T08:16:02;1.80;;;1.70;;
26696;SDS011;14312;52.614;13.496;2023-07-16T08:18:48;1.95;;;1.75;;
26696;SDS011;14312;52.614;13.496;2023-07-16T08:21:35;1.98;;;1.85;;
26696;SDS011;14312;52.614;13.496;2023-07-16T08:24:24;2.22;;;2.03;;
26696;SDS011;14312;52.614;13.496;2023-07-16T08:27:10;1.98;;;1.70;;
26696;SDS011;14312;52.614;13.496;2023-07-16T08:29:56;1.80;;;1.70;;
26696;SDS011;14312;52.614;13.496;2023-07-16T08:32:43;1.83;;;1.73;;
26696;SDS011;14312;52.614;13.496;2023-07-16T08:35:29;1.60;;;1.50;;
26696;SDS011;14312;52.614;13.496;2023-07-16T08:38:15;1.83;;;1.73;;
26696;SDS011;14312;52.614;13.496;2023-07-16T08:41:03;2.63;;;1.70;;
26696;SDS011;14312;52.614;13.496;2023-07-16T08:43:49;1.88;;;1.77;;
26696;SDS011;14312;52.614;13.496;2023-07-16T08:46:36;2.25;;;2.05;;
26696;SDS011;14312;52.614;13.496;2023-07-16T08:49:22;1.80;;;1.70;;
26696;SDS011;14312;52.614;13.496;2023-07-16T08:52:08;1.90;;;1.70;;
26696;SDS011;14312;52.614;13.496;2023-07-16T08:54:55;1.70;;;1.60;;
26696;SDS011;14312;52.614;13.496;2023-07-16T08:57:42;1.88;;;1.75;;
26696;SDS011;14312;52.614;13.496;2023-07-16T09:00:28;2.13;;;1.92;;
26696;SDS011;14312;52.614;13.496;2023-07-16T09:03:15;2.05;;;1.88;;
26696;SDS011;14312;52.614;13.496;2023-07-16T09:06:04;1.70;;;1.60;;
26696;SDS011;14312;52.614;13.496;2023-07-16T09:08:53;1.70;;;1.60;;
26696;SDS011;14312;52.614;13.496;2023-07-16T09:11:45;2.00;;;1.70;;
26696;SDS011;14312;52.614;13.496;2023-07-16T09:14:32;1.98;;;1.85;;
26696;SDS011;14312;52.614;13.496;2023-07-16T09:17:24;1.92;;;1.80;;
26696;SDS011;14312;52.614;13.496;2023-07-16T09:20:11;1.75;;;1.65;;
26696;SDS011;14312;52.614;13.496;2023-07-16T09:22:57;2.00;;;1.80;;
26696;SDS011;14312;52.614;13.496;2023-07-16T09:25:43;1.88;;;1.65;;
26696;SDS011;14312;52.614;13.496;2023-07-16T09:28:30;2.70;;;1.95;;
26696;SDS011;14312;52.614;13.496;2023-07-16T09:31:17;1.58;;;1.48;;
26696;SDS011;14312;52.614;13.496;2023-07-16T09:34:03;1.80;;;1.70;;
26696;SDS011;14312;52.614;13.496;2023-07-16T09:36:51;2.25;;;1.70;;
26696;SDS011;14312;52.614;13.496;2023-07-16T09:39:37;2.17;;;1.98;;
26696;SDS011;14312;52.614;13.496;2023-07-16T09:42:27;2.22;;;2.03;;
26696;SDS011;14312;52.614;13.496;2023-07-16T09:45:17;1.88;;;1.60;;
26696;SDS011;14312;52.614;13.496;2023-07-16T09:48:04;2.03;;;1.83;;
26696;SDS011;14312;52.614;13.496;2023-07-16T09:50:51;2.25;;;2.00;;
26696;SDS011;14312;52.614;13.496;2023-07-16T09:53:39;1.85;;;1.70;;
26696;SDS011;14312;52.614;13.496;2023-07-16T09:56:35;2.00;;;1.70;;
26696;SDS011;14312;52.614;13.496;2023-07-16T09:59:23;1.88;;;1.70;;
26696;SDS011;14312;52.614;13.496;2023-07-16T10:02:12;1.65;;;1.52;;
26696;SDS011;14312;52.614;13.496;2023-07-16T10:04:58;3.35;;;1.92;;
26696;SDS011;14312;52.614;13.496;2023-07-16T10:07:54;1.75;;;1.65;;
26696;SDS011;14312;52.614;13.496;2023-07-16T10:10:45;1.50;;;1.40;;
26696;SDS011;14312;52.614;13.496;2023-07-16T10:13:39;1.70;;;1.45;;
26696;SDS011;14312;52.614;13.496;2023-07-16T10:16:27;2.15;;;1.52;;
26696;SDS011;14312;52.614;13.496;2023-07-16T10:19:23;1.60;;;1.45;;
26696;SDS011;14312;52.614;13.496;2023-07-16T10:22:09;1.75;;;1.52;;
26696;SDS011;14312;52.614;13.496;2023-07-16T10:24:55;1.65;;;1.45;;
26696;SDS011;14312;52.614;13.496;2023-07-16T10:27:41;3.28;;;1.80;;
26696;SDS011;14312;52.614;13.496;2023-07-16T10:30:26;1.63;;;1.52;;
26696;SDS011;14312;52.614;13.496;2023-07-16T10:33:13;2.53;;;1.70;;
26696;SDS011;14312;52.614;13.496;2023-07-16T10:35:59;2.50;;;1.48;;
26696;SDS011;14312;52.614;13.496;2023-07-16T10:38:45;1.50;;;1.40;;
26696;SDS011;14312;52.614;13.496;2023-07-16T10:41:31;1.60;;;1.50;;
26696;SDS011;14312;52.614;13.496;2023-07-16T10:44:23;3.08;;;2.22;;
26696;SDS011;14312;52.614;13.496;2023-07-16T10:47:10;1.92;;;1.60;;
26696;SDS011;14312;52.614;13.496;2023-07-16T10:50:06;1.80;;;1.70;;
26696;SDS011;14312;52.614;13.496;2023-07-16T10:52:55;2.30;;;1.67;;
26696;SDS011;14312;52.614;13.496;2023-07-16T10:55:42;1.75;;;1.65;;
26696;SDS011;14312;52.614;13.496;2023-07-16T10:58:27;2.50;;;1.88;;
26696;SDS011;14312;52.614;13.496;2023-07-16T11:01:14;1.95;;;1.75;;
26696;SDS011;14312;52.614;13.496;2023-07-16T11:04:00;2.88;;;1.83;;
26696;SDS011;14312;52.614;13.496;2023-07-16T11:06:49;1.80;;;1.70;;
26696;SDS011;14312;52.614;13.496;2023-07-16T11:09:45;3.90;;;1.75;;
26696;SDS011;14312;52.614;13.496;2023-07-16T11:12:35;1.58;;;1.48;;
26696;SDS011;14312;52.614;13.496;2023-07-16T11:15:34;1.70;;;1.60;;
26696;SDS011;14312;52.614;13.496;2023-07-16T11:18:24;1.88;;;1.70;;
26696;SDS011;14312;52.614;13.496;2023-07-16T11:21:10;2.05;;;1.88;;
26696;SDS011;14312;52.614;13.496;2023-07-16T11:23:56;1.90;;;1.80;;
26696;SDS011;14312;52.614;13.496;2023-07-16T11:26:54;1.67;;;1.58;;
26696;SDS011;14312;52.614;13.496;2023-07-16T11:29:50;1.98;;;1.88;;
26696;SDS011;14312;52.614;13.496;2023-07-16T11:35:31;2.00;;;1.90;;
26696;SDS011;14312;52.614;13.496;2023-07-16T11:38:17;2.08;;;1.95;;
26696;SDS011;14312;52.614;13.496;2023-07-16T11:41:03;2.17;;;1.98;;
26696;SDS011;14312;52.614;13.496;2023-07-16T11:43:50;2.05;;;1.80;;
26696;SDS011;14312;52.614;13.496;2023-07-16T11:46:36;2.60;;;2.10;;
26696;SDS011;14312;52.614;13.496;2023-07-16T11:49:22;1.98;;;1.88;;
26696;SDS011;14312;52.614;13.496;2023-07-16T11:52:08;2.83;;;2.05;;
26696;SDS011;14312;52.614;13.496;2023-07-16T11:54:56;2.50;;;2.30;;
26696;SDS011;14312;52.614;13.496;2023-07-16T11:57:50;2.33;;;2.10;;
26696;SDS011;14312;52.614;13.496;2023-07-16T12:00:36;2.60;;;2.05;;
26696;SDS011;14312;52.614;13.496;2023-07-16T12:03:22;1.98;;;1.85;;
26696;SDS011;14312;52.614;13.496;2023-07-16T12:06:08;2.25;;;2.05;;
26696;SDS011;14312;52.614;13.496;2023-07-16T12:08:55;3.03;;;1.90;;
26696;SDS011;14312;52.614;13.496;2023-07-16T12:11:43;2.05;;;1.88;;
26696;SDS011;14312;52.614;13.496;2023-07-16T12:14:30;2.17;;;1.90;;
26696;SDS011;14312;52.614;13.496;2023-07-16T12:17:16;2.08;;;1.85;;
26696;SDS011;14312;52.614;13.496;2023-07-16T12:20:02;4.13;;;1.90;;
26696;SDS011;14312;52.614;13.496;2023-07-16T12:22:49;1.70;;;1.60;;
26696;SDS011;14312;52.614;13.496;2023-07-16T12:25:35;2.38;;;1.75;;
26696;SDS011;14312;52.614;13.496;2023-07-16T12:28:21;1.98;;;1.70;;
26696;SDS011;14312;52.614;13.496;2023-07-16T12:31:07;2.08;;;1.80;;
26696;SDS011;14312;52.614;13.496;2023-07-16T12:33:53;2.25;;;1.80;;
26696;SDS011;14312;52.614;13.496;2023-07-16T12:36:39;2.00;;;1.90;;
26696;SDS011;14312;52.614;13.496;2023-07-16T12:39:24;3.03;;;1.88;;
26696;SDS011;14312;52.614;13.496;2023-07-16T12:42:13;4.32;;;2.08;;
26696;SDS011;14312;52.614;13.496;2023-07-16T12:44:59;2.00;;;1.80;;
26696;SDS011;14312;52.614;13.496;2023-07-16T12:47:45;2.00;;;1.70;;
26696;SDS011;14312;52.614;13.496;2023-07-16T12:50:30;1.88;;;1.77;;
26696;SDS011;14312;52.614;13.496;2023-07-16T12:53:16;1.98;;;1.88;;
26696;SDS011;14312;52.614;13.496;2023-07-16T12:56:03;1.70;;;1.60;;
26696;SDS011;14312;52.614;13.496;2023-07-16T12:58:52;2.55;;;1.88;;
26696;SDS011;14312;52.614;13.496;2023-07-16T13:01:38;2.22;;;2.03;;
26696;SDS011;14312;52.614;13.496;2023-07-16T13:04:24;1.98;;;1.80;;
26696;SDS011;14312;52.614;13.496;2023-07-16T13:07:09;2.50;;;1.88;;
26696;SDS011;14312;52.614;13.496;2023-07-16T13:09:55;1.92;;;1.80;;
26696;SDS011;14312;52.614;13.496;2023-07-16T13:12:41;2.90;;;1.83;;
26696;SDS011;14312;52.614;13.496;2023-07-16T13:15:27;2.08;;;1.88;;
26696;SDS011;14312;52.614;13.496;2023-07-16T13:18:13;1.70;;;1.60;;
26696;SDS011;14312;52.614;13.496;2023-07-16T13:20:58;2.13;;;1.70;;
26696;SDS011;14312;52.614;13.496;2023-07-16T13:23:44;2.65;;;1.77;;
26696;SDS011;14312;52.614;13.496;2023-07-16T13:26:30;2.00;;;1.80;;
26696;SDS011;14312;52.614;13.496;2023-07-16T13:29:16;2.75;;;1.95;;
26696;SDS011;14312;52.614;13.496;2023-07-16T13:32:02;1.90;;;1.80;;
26696;SDS011;14312;52.614;13.496;2023-07-16T13:34:49;1.95;;;1.73;;
26696;SDS011;14312;52.614;13.496;2023-07-16T13:37:34;2.25;;;2.00;;
26696;SDS011;14312;52.614;13.496;2023-07-16T13:40:20;1.63;;;1.52;;
26696;SDS011;14312;52.614;13.496;2023-07-16T13:43:06;2.13;;;1.90;;
26696;SDS011;14312;52.614;13.496;2023-07-16T13:45:52;2.55;;;2.13;;
26696;SDS011;14312;52.614;13.496;2023-07-16T13:48:38;2.03;;;1.83;;
26696;SDS011;14312;52.614;13.496;2023-07-16T13:51:25;2.70;;;1.70;;
26696;SDS011;14312;52.614;13.496;2023-07-16T13:54:11;1.60;;;1.50;;
26696;SDS011;14312;52.614;13.496;2023-07-16T13:56:57;2.13;;;1.92;;
26696;SDS011;14312;52.614;13.496;2023-07-16T13:59:43;2.95;;;1.65;;
26696;SDS011;14312;52.614;13.496;2023-07-16T14:02:29;1.83;;;1.70;;
26696;SDS011;14312;52.614;13.496;2023-07-16T14:05:15;1.70;;;1.60;;
26696;SDS011;14312;52.614;13.496;2023-07-16T14:08:01;2.90;;;1.98;;
26696;SDS011;14312;52.614;13.496;2023-07-16T14:10:47;2.90;;;1.88;;
26696;SDS011;14312;52.614;13.496;2023-07-16T14:13:33;1.95;;;1.70;;
26696;SDS011;14312;52.614;13.496;2023-07-16T14:16:20;1.63;;;1.52;;
26696;SDS011;14312;52.614;13.496;2023-07-16T14:19:06;1.75;;;1.65;;
26696;SDS011;14312;52.614;13.496;2023-07-16T14:21:52;1.90;;;1.63;;
26696;SDS011;14312;52.614;13.496;2023-07-16T14:24:38;1.80;;;1.70;;
26696;SDS011;14312;52.614;13.496;2023-07-16T14:27:25;2.20;;;1.70;;
26696;SDS011;14312;52.614;13.496;2023-07-16T14:30:10;2.58;;;1.65;;
26696;SDS011;14312;52.614;13.496;2023-07-16T14:32:57;1.77;;;1.65;;
26696;SDS011;14312;52.614;13.496;2023-07-16T14:35:44;1.67;;;1.58;;
26696;SDS011;14312;52.614;13.496;2023-07-16T14:38:30;2.10;;;1.90;;
26696;SDS011;14312;52.614;13.496;2023-07-16T14:41:16;2.47;;;1.63;;
26696;SDS011;14312;52.614;13.496;2023-07-16T14:44:02;2.03;;;1.60;;
26696;SDS011;14312;52.614;13.496;2023-07-16T14:46:48;1.73;;;1.50;;
26696;SDS011;14312;52.614;13.496;2023-07-16T14:49:34;2.17;;;1.85;;
26696;SDS011;14312;52.614;13.496;2023-07-16T14:52:20;2.17;;;1.95;;
26696;SDS011;14312;52.614;13.496;2023-07-16T14:55:06;1.90;;;1.73;;
26696;SDS011;14312;52.614;13.496;2023-07-16T14:57:53;1.95;;;1.60;;
26696;SDS011;14312;52.614;13.496;2023-07-16T15:00:39;3.47;;;1.60;;
26696;SDS011;14312;52.614;13.496;2023-07-16T15:03:25;1.75;;;1.48;;
26696;SDS011;14312;52.614;13.496;2023-07-16T15:06:11;2.45;;;1.60;;
26696;SDS011;14312;52.614;13.496;2023-07-16T15:08:57;1.67;;;1.58;;
26696;SDS011;14312;52.614;13.496;2023-07-16T15:11:43;1.33;;;1.23;;
26696;SDS011;14312;52.614;13.496;2023-07-16T15:14:29;2.15;;;1.70;;
26696;SDS011;14312;52.614;13.496;2023-07-16T15:17:15;1.70;;;1.60;;
26696;SDS011;14312;52.614;13.496;2023-07-16T15:20:01;2.80;;;1.50;;
26696;SDS011;14312;52.614;13.496;2023-07-16T15:22:47;2.58;;;1.65;;
26696;SDS011;14312;52.614;13.496;2023-07-16T15:25:32;1.55;;;1.45;;
26696;SDS011;14312;52.614;13.496;2023-07-16T15:28:18;1.60;;;1.50;;
26696;SDS011;14312;52.614;13.496;2023-07-16T15:31:04;1.70;;;1.60;;
26696;SDS011;14312;52.614;13.496;2023-07-16T15:33:51;2.78;;;1.70;;
26696;SDS011;14312;52.614;13.496;2023-07-16T15:36:37;2.45;;;1.60;;
26696;SDS011;14312;52.614;13.496;2023-07-16T15:39:23;1.83;;;1.60;;
26696;SDS011;14312;52.614;13.496;2023-07-16T15:42:09;1.98;;;1.80;;
26696;SDS011;14312;52.614;13.496;2023-07-16T15:44:55;2.25;;;1.88;;
26696;SDS011;14312;52.614;13.496;2023-07-16T15:47:41;2.50;;;1.55;;
26696;SDS011;14312;52.614;13.496;2023-07-16T15:50:27;1.90;;;1.80;;
26696;SDS011;14312;52.614;13.496;2023-07-16T15:53:13;3.53;;;1.90;;
26696;SDS011;14312;52.614;13.496;2023-07-16T15:55:59;2.45;;;1.95;;
26696;SDS011;14312;52.614;13.496;2023-07-16T15:58:45;1.42;;;1.33;;
26696;SDS011;14312;52.614;13.496;2023-07-16T16:01:31;1.58;;;1.48;;
26696;SDS011;14312;52.614;13.496;2023-07-16T16:04:17;1.70;;;1.50;;
26696;SDS011;14312;52.614;13.496;2023-07-16T16:07:03;2.78;;;1.58;;
26696;SDS011;14312;52.614;13.496;2023-07-16T16:09:49;1.73;;;1.63;;
26696;SDS011;14312;52.614;13.496;2023-07-16T16:12:35;2.08;;;1.50;;
26696;SDS011;14312;52.614;13.496;2023-07-16T16:15:21;1.40;;;1.30;;
26696;SDS011;14312;52.614;13.496;2023-07-16T16:18:07;1.70;;;1.60;;
26696;SDS011;14312;52.614;13.496;2023-07-16T16:20:53;3.60;;;1.63;;
26696;SDS011;14312;52.614;13.496;2023-07-16T16:23:39;1.67;;;1.58;;
26696;SDS011;14312;52.614;13.496;2023-07-16T16:26:25;1.60;;;1.50;;
26696;SDS011;14312;52.614;13.496;2023-07-16T16:29:11;1.48;;;1.33;;
26696;SDS011;14312;52.614;13.496;2023-07-16T16:31:57;2.42;;;1.80;;
26696;SDS011;14312;52.614;13.496;2023-07-16T16:34:43;2.20;;;1.77;;